Time;durP1;ratioP1;P1;durP2;ratioP2;P2;SDS_P1;SDS_P2;PMS_P1;PMS_P2;Temp;Humidity;BMP_temperature;BMP_pressure;BME280_temperature;BME280_humidity;BME280_pressure;Samples;Min_cycle;Max_cycle;Signal;HPM_P1;HPM_P2
2022/10/24 00:00:06;;;;;;;5.07;1.57;;;17.20;99.90;;;;;;5035871;28;20212;-82
2022/10/24 00:02:47;;;;;;;3.63;1.40;;;17.30;99.90;;;;;;5035947;28;20213;-81
2022/10/24 00:05:23;;;;;;;5.90;1.77;;;17.30;99.90;;;;;;5037909;28;20225;-82
2022/10/24 00:10:42;;;;;;;6.47;2.00;;;17.40;99.90;;;;;;5037307;28;20196;-82
2022/10/24 00:16:46;;;;;;;4.03;1.87;;;17.30;99.90;;;;;;5038607;28;20203;-81
2022/10/24 00:19:24;;;;;;;4.93;1.97;;;17.40;99.90;;;;;;5037601;28;20247;-82
2022/10/24 00:22:24;;;;;;;4.50;2.20;;;17.50;99.90;;;;;;5039041;28;20183;-79
2022/10/24 00:24:59;;;;;;;3.27;2.17;;;17.60;99.90;;;;;;5018533;28;20271;-80
2022/10/24 00:27:47;;;;;;;6.67;1.80;;;17.70;99.90;;;;;;5020790;28;20189;-81
2022/10/24 00:31:11;;;;;;;6.33;1.70;;;17.80;99.90;;;;;;5036491;28;20229;-81
2022/10/24 00:37:17;;;;;;;4.27;1.83;;;17.70;99.90;;;;;;5035665;28;20275;-82
2022/10/24 00:43:14;;;;;;;5.47;1.67;;;17.50;99.90;;;;;;5032079;28;20203;-80
2022/10/24 00:52:25;;;;;;;7.07;1.60;;;17.50;99.90;;;;;;5037304;28;20230;-82
2022/10/24 00:55:40;;;;;;;6.03;2.10;;;17.50;99.90;;;;;;5036852;28;20432;-82
2022/10/24 00:58:35;;;;;;;3.50;1.93;;;17.60;99.90;;;;;;5037864;28;20216;-81
2022/10/24 01:01:16;;;;;;;4.33;1.53;;;17.50;99.90;;;;;;5033506;28;20197;-81
2022/10/24 01:03:51;;;;;;;5.60;1.57;;;17.60;99.90;;;;;;5036878;28;20181;-81
2022/10/24 01:07:17;;;;;;;2.27;1.43;;;17.50;99.90;;;;;;5038521;28;20241;-82
2022/10/24 01:30:52;;;;;;;6.10;1.50;;;17.20;99.90;;;;;;5017550;28;20216;-86
2022/10/24 01:37:27;;;;;;;4.73;1.53;;;17.30;99.90;;;;;;5018253;28;20207;-82
2022/10/24 01:49:50;;;;;;;7.83;2.30;;;17.20;99.90;;;;;;5000252;28;20215;-84
2022/10/24 02:13:08;;;;;;;4.73;1.17;;;17.10;99.90;;;;;;4974796;28;20201;-82
2022/10/24 02:23:15;;;;;;;5.53;1.43;;;17.00;99.90;;;;;;5178026;23;20720;-95
2022/10/24 02:25:55;;;;;;;4.60;1.77;;;17.00;99.90;;;;;;4998974;28;20215;-96
2022/10/24 02:28:35;;;;;;;5.43;1.63;;;17.00;99.90;;;;;;4998542;28;20207;-95
2022/10/24 02:31:22;;;;;;;;;;;;;;;;;;;;;
2022/10/24 02:34:30;;;;;;;5.80;1.57;;;17.10;99.90;;;;;;5015935;28;20201;-93
2022/10/24 02:37:04;;;;;;;7.77;1.80;;;17.10;99.90;;;;;;5017588;28;20330;-95
2022/10/24 02:39:46;;;;;;;6.63;1.50;;;17.10;99.90;;;;;;5017660;28;20268;-95
2022/10/24 02:42:22;;;;;;;4.53;1.37;;;17.10;99.90;;;;;;5016419;28;20234;-95
2022/10/24 02:44:52;;;;;;;5.70;1.53;;;17.10;99.90;;;;;;5016184;28;20196;-92
2022/10/24 02:47:42;;;;;;;5.43;1.60;;;17.10;99.90;;;;;;5017639;28;20203;-95
2022/10/24 02:50:14;;;;;;;6.57;1.73;;;17.10;99.90;;;;;;5016952;28;20597;-91
2022/10/24 02:52:46;;;;;;;4.93;1.50;;;17.10;99.90;;;;;;5017967;28;20650;-93
2022/10/24 02:55:14;;;;;;;8.60;2.00;;;17.10;99.90;;;;;;5021884;28;20217;-93
2022/10/24 02:57:45;;;;;;;6.33;1.67;;;17.00;99.90;;;;;;5026758;28;20578;-92
2022/10/24 03:00:19;;;;;;;6.40;1.40;;;17.00;99.90;;;;;;5016941;28;20657;-91
2022/10/24 03:06:38;;;;;;;4.37;1.67;;;16.90;99.90;;;;;;5017283;28;20238;-93
2022/10/24 03:09:34;;;;;;;7.77;1.30;;;16.90;99.90;;;;;;5017559;28;20269;-93
2022/10/24 03:12:13;;;;;;;3.87;1.60;;;16.90;99.90;;;;;;5018974;28;20228;-93
2022/10/24 03:14:41;;;;;;;4.47;1.50;;;16.90;99.90;;;;;;5022625;28;20204;-93
2022/10/24 03:17:15;;;;;;;5.37;1.50;;;16.90;99.90;;;;;;5021037;28;20232;-93
2022/10/24 03:19:48;;;;;;;4.37;1.40;;;16.90;99.90;;;;;;5023526;28;20610;-93
2022/10/24 03:22:16;;;;;;;5.10;1.40;;;16.90;99.90;;;;;;5022454;28;20240;-93
2022/10/24 03:27:32;;;;;;;7.20;1.70;;;16.90;99.90;;;;;;5020104;28;20303;-92
2022/10/24 03:29:59;;;;;;;4.63;1.30;;;16.90;99.90;;;;;;5021302;28;20208;-94
2022/10/24 03:32:29;;;;;;;6.00;1.50;;;16.80;99.90;;;;;;5022037;28;20315;-93
2022/10/24 03:34:59;;;;;;;5.00;1.70;;;16.80;99.90;;;;;;5021626;28;20231;-93
2022/10/24 03:37:30;;;;;;;8.90;1.60;;;16.80;99.90;;;;;;5021437;28;20230;-93
2022/10/24 03:40:00;;;;;;;5.17;1.70;;;16.90;99.90;;;;;;5020925;28;20639;-93
2022/10/24 03:42:31;;;;;;;8.23;1.57;;;16.90;99.90;;;;;;5038894;28;20238;-94
2022/10/24 03:45:11;;;;;;;6.73;2.00;;;16.90;99.90;;;;;;5023709;28;20685;-94
2022/10/24 03:47:43;;;;;;;6.23;1.90;;;16.90;99.90;;;;;;5021611;28;20213;-93
2022/10/24 03:50:16;;;;;;;5.30;1.53;;;16.90;99.90;;;;;;5022013;28;20208;-94
2022/10/24 03:52:52;;;;;;;5.80;1.93;;;16.90;99.90;;;;;;5020462;28;20749;-94
2022/10/24 03:55:37;;;;;;;9.13;2.10;;;17.00;99.90;;;;;;5020410;28;20211;-95
2022/10/24 03:58:24;;;;;;;5.70;1.50;;;17.00;99.90;;;;;;5021120;28;20743;-95
2022/10/24 04:00:57;;;;;;;7.13;1.83;;;17.00;99.90;;;;;;5022024;28;20208;-93
2022/10/24 04:03:28;;;;;;;6.80;1.80;;;17.10;99.90;;;;;;5023717;28;20234;-94
2022/10/24 04:06:38;;;;;;;7.80;2.03;;;17.10;99.90;;;;;;5022315;28;20207;-94
2022/10/24 04:09:13;;;;;;;8.57;1.90;;;17.00;99.90;;;;;;5006319;28;20643;-95
2022/10/24 04:12:20;;;;;;;7.00;1.80;;;17.00;99.90;;;;;;5020865;28;21431;-94
2022/10/24 04:15:32;;;;;;;10.57;2.33;;;17.00;99.90;;;;;;5022117;28;20662;-94
2022/10/24 04:18:13;;;;;;;6.73;1.70;;;17.00;99.90;;;;;;5020983;28;20346;-95
2022/10/24 04:24:08;;;;;;;6.00;1.87;;;17.00;99.90;;;;;;5020672;28;20231;-93
2022/10/24 04:26:56;;;;;;;5.03;1.60;;;17.00;99.90;;;;;;5017157;28;20280;-94
2022/10/24 05:44:47;;;;;;;6.03;1.83;;;15.40;99.90;;;;;;5023616;28;20195;-82
2022/10/24 05:56:54;;;;;;;13.80;2.40;;;14.90;99.90;;;;;;5027381;28;20225;-85
2022/10/24 05:59:33;;;;;;;11.17;2.83;;;14.80;99.90;;;;;;5011614;28;20210;-85
2022/10/24 06:02:18;;;;;;;13.43;2.77;;;14.70;99.90;;;;;;5026819;28;20208;-82
2022/10/24 06:05:02;;;;;;;10.93;2.63;;;14.70;99.90;;;;;;5027784;28;20234;-83
2022/10/24 06:07:52;;;;;;;11.50;2.70;;;14.70;99.90;;;;;;5016203;28;20216;-84
2022/10/24 06:17:04;;;;;;;12.53;2.67;;;14.60;99.90;;;;;;5026083;28;20225;-80
2022/10/24 06:19:33;;;;;;;8.20;2.30;;;14.70;99.90;;;;;;5028500;28;20208;-82
2022/10/24 06:22:02;;;;;;;11.10;2.40;;;14.70;99.90;;;;;;5022987;28;20207;-80
2022/10/24 06:24:32;;;;;;;10.10;2.30;;;14.80;99.90;;;;;;5020783;28;20208;-79
2022/10/24 06:26:59;;;;;;;10.07;2.37;;;14.80;99.90;;;;;;5031694;28;20188;-80
2022/10/24 06:32:37;;;;;;;8.30;2.20;;;14.70;99.90;;;;;;5021220;28;20200;-83
2022/10/24 06:35:38;;;;;;;11.63;2.37;;;14.60;99.90;;;;;;5027645;28;20207;-81
2022/10/24 06:38:43;;;;;;;8.00;1.73;;;14.60;99.90;;;;;;5028745;28;20246;-84
2022/10/24 06:41:26;;;;;;;6.80;1.80;;;14.60;99.90;;;;;;5008600;28;20211;-85
2022/10/24 06:55:28;;;;;;;9.00;2.07;;;14.50;99.90;;;;;;5027439;28;20230;-80
2022/10/24 06:58:19;;;;;;;10.37;2.27;;;14.50;99.90;;;;;;5024367;28;20303;-79
2022/10/24 07:00:58;;;;;;;8.83;2.13;;;14.60;99.90;;;;;;5012979;28;20206;-81
2022/10/24 07:07:05;;;;;;;9.27;1.70;;;14.70;99.90;;;;;;5030311;28;20192;-80
2022/10/24 07:09:41;;;;;;;6.43;2.30;;;14.80;99.90;;;;;;5026901;28;20549;-80
2022/10/24 07:12:20;;;;;;;16.80;1.90;;;14.80;99.90;;;;;;5014782;28;20212;-81
2022/10/24 07:14:56;;;;;;;9.97;2.40;;;14.90;99.90;;;;;;5027486;28;20264;-81
2022/10/24 07:17:24;;;;;;;4.67;1.67;;;15.00;99.90;;;;;;5009086;28;20222;-81
2022/10/24 07:20:02;;;;;;;9.40;1.90;;;15.00;99.90;;;;;;5007769;28;20208;-81
2022/10/24 07:22:45;;;;;;;7.30;1.90;;;15.00;99.90;;;;;;5007749;28;20212;-81
2022/10/24 07:25:19;;;;;;;13.63;2.20;;;15.10;99.90;;;;;;5005955;28;20209;-80
2022/10/24 07:27:51;;;;;;;4.10;1.70;;;15.20;99.90;;;;;;5012115;28;20200;-81
2022/10/24 07:30:33;;;;;;;8.77;2.10;;;15.20;99.90;;;;;;5025986;28;20208;-80
2022/10/24 07:33:10;;;;;;;9.30;2.03;;;15.20;99.90;;;;;;5019186;28;20224;-81
2022/10/24 07:35:47;;;;;;;7.97;1.57;;;15.30;99.90;;;;;;5022977;28;20203;-81
2022/10/24 07:38:31;;;;;;;8.93;1.63;;;15.40;99.90;;;;;;5014259;28;20300;-80
2022/10/24 07:41:09;;;;;;;7.40;2.03;;;15.30;99.90;;;;;;5023629;28;20204;-81
2022/10/24 07:43:38;;;;;;;11.03;2.47;;;15.40;99.90;;;;;;5023691;28;20216;-81
2022/10/24 07:46:12;;;;;;;10.13;2.33;;;15.40;99.90;;;;;;5026183;28;20213;-81
2022/10/24 07:48:43;;;;;;;9.70;2.37;;;15.40;99.90;;;;;;5021387;28;20233;-80
2022/10/24 07:51:15;;;;;;;8.37;2.73;;;15.50;99.90;;;;;;5011393;28;20315;-81
2022/10/24 07:53:44;;;;;;;9.00;2.20;;;15.50;99.90;;;;;;5021266;28;20228;-80
2022/10/24 07:56:18;;;;;;;9.83;2.30;;;15.60;99.90;;;;;;5026241;28;20264;-79
2022/10/24 07:58:56;;;;;;;11.20;2.87;;;15.60;99.90;;;;;;5009990;28;20300;-80
2022/10/24 08:01:31;;;;;;;10.47;2.23;;;15.60;99.90;;;;;;5012027;28;20201;-80
2022/10/24 08:04:07;;;;;;;9.80;2.43;;;15.60;99.90;;;;;;5021653;28;20309;-80
2022/10/24 08:06:36;;;;;;;15.03;2.70;;;15.60;99.90;;;;;;5017950;28;20203;-78
2022/10/24 08:09:08;;;;;;;12.17;2.40;;;15.60;99.90;;;;;;5011618;28;20198;-80
2022/10/24 08:11:35;;;;;;;8.40;2.10;;;15.60;99.90;;;;;;5012356;28;20236;-80
2022/10/24 08:14:11;;;;;;;10.07;2.73;;;15.70;99.90;;;;;;5005916;28;20586;-79
2022/10/24 08:16:44;;;;;;;10.50;2.67;;;15.60;99.90;;;;;;5009071;28;20710;-79
2022/10/24 08:19:16;;;;;;;12.90;3.23;;;15.60;99.90;;;;;;5008891;28;20242;-79
2022/10/24 08:21:43;;;;;;;13.27;2.97;;;15.70;99.90;;;;;;5009748;28;20213;-78
2022/10/24 08:24:12;;;;;;;12.40;2.80;;;15.70;99.90;;;;;;5013728;28;20201;-80
2022/10/24 08:26:49;;;;;;;14.57;3.23;;;15.70;99.90;;;;;;5018548;28;20224;-78
2022/10/24 08:29:50;;;;;;;11.70;2.67;;;15.70;99.90;;;;;;5034570;28;20258;-83
2022/10/24 08:32:25;;;;;;;17.63;3.00;;;15.80;99.90;;;;;;5034490;28;20230;-81
2022/10/24 08:35:00;;;;;;;12.73;2.67;;;15.70;99.90;;;;;;5029618;28;20206;-81
2022/10/24 08:40:33;;;;;;;9.67;2.60;;;15.70;99.90;;;;;;5025530;28;20221;-80
2022/10/24 08:43:08;;;;;;;14.17;2.90;;;15.70;99.90;;;;;;5026858;28;20262;-80
2022/10/24 08:45:53;;;;;;;14.07;2.83;;;15.70;99.90;;;;;;5011926;28;20217;-80
2022/10/24 08:48:29;;;;;;;17.63;3.33;;;15.90;99.90;;;;;;5015004;28;20231;-80
2022/10/24 09:01:27;;;;;;;18.37;3.00;;;16.80;99.90;;;;;;5038551;28;20197;-81
2022/10/24 09:07:15;;;;;;;17.17;2.87;;;17.10;99.90;;;;;;5037501;28;20223;-83
2022/10/24 09:10:21;;;;;;;11.27;2.47;;;17.10;99.90;;;;;;5035300;28;20191;-81
2022/10/24 09:22:49;;;;;;;12.27;2.47;;;17.40;99.90;;;;;;5037127;28;20265;-83
2022/10/24 11:59:17;;;;;;;7.60;2.37;;;18.50;99.90;;;;;;5342991;23;20244;-88
2022/10/24 12:02:03;;;;;;;9.00;1.93;;;18.70;99.90;;;;;;5130927;23;20214;-87
2022/10/24 12:18:14;;;;;;;7.83;1.60;;;18.50;99.90;;;;;;5867744;23;20231;-86
2022/10/24 12:20:41;;;;;;;5.90;1.80;;;18.70;99.90;;;;;;5055155;28;20263;-90
2022/10/24 12:39:32;;;;;;;4.50;1.10;;;18.80;99.90;;;;;;5077368;23;20247;-88
2022/10/24 12:59:30;;;;;;;6.17;0.97;;;18.70;99.90;;;;;;5204717;23;20239;-86
2022/10/24 13:02:31;;;;;;;3.73;0.90;;;18.70;99.90;;;;;;5048370;28;20203;-85
2022/10/24 13:30:22;;;;;;;6.20;1.17;;;18.50;99.90;;;;;;5264655;23;20245;-88
2022/10/24 13:58:01;;;;;;;4.67;1.30;;;18.70;99.90;;;;;;5031270;28;20216;-80
2022/10/24 14:00:31;;;;;;;5.07;1.40;;;18.60;99.90;;;;;;5026089;28;20210;-80
2022/10/24 14:03:01;;;;;;;3.53;1.13;;;18.60;99.90;;;;;;5022857;28;20291;-80
2022/10/24 14:05:35;;;;;;;10.47;2.00;;;18.50;99.90;;;;;;5025658;28;20262;-80
2022/10/24 14:08:03;;;;;;;6.63;1.50;;;18.60;99.90;;;;;;5018024;28;20935;-81
2022/10/24 14:10:31;;;;;;;4.70;1.63;;;18.70;99.90;;;;;;5005693;28;20220;-79
2022/10/24 14:13:03;;;;;;;9.83;2.27;;;18.60;99.90;;;;;;5003392;28;20567;-80
2022/10/24 14:15:32;;;;;;;5.77;1.57;;;18.60;99.90;;;;;;4997950;28;20251;-82
2022/10/24 14:18:05;;;;;;;5.30;1.63;;;18.60;99.90;;;;;;4998679;28;20236;-79
2022/10/24 14:20:35;;;;;;;4.53;1.50;;;18.60;99.90;;;;;;4999451;28;20743;-79
2022/10/24 14:23:02;;;;;;;10.37;1.90;;;18.50;99.90;;;;;;5001459;28;20200;-79
2022/10/24 14:25:34;;;;;;;5.00;1.63;;;18.50;99.90;;;;;;5005959;28;20276;-78
2022/10/24 14:28:23;;;;;;;4.53;1.40;;;18.50;99.90;;;;;;5013562;28;20235;-78
2022/10/24 14:30:54;;;;;;;5.53;1.80;;;18.40;99.90;;;;;;5018417;28;20259;-84
2022/10/24 14:33:24;;;;;;;4.00;1.67;;;18.50;99.90;;;;;;5003370;28;20200;-85
2022/10/24 14:35:52;;;;;;;5.33;1.83;;;18.70;99.90;;;;;;5003817;28;20193;-86
2022/10/24 14:38:20;;;;;;;5.50;2.00;;;18.70;99.90;;;;;;4997147;28;20236;-88
2022/10/24 14:40:48;;;;;;;8.63;1.90;;;18.80;99.90;;;;;;4997479;28;20644;-87
2022/10/24 14:43:19;;;;;;;6.50;2.03;;;18.90;99.90;;;;;;4997034;28;20203;-87
2022/10/24 14:46:02;;;;;;;10.77;2.17;;;19.00;99.90;;;;;;5004489;28;20194;-89
2022/10/24 14:48:29;;;;;;;7.20;1.77;;;19.00;99.90;;;;;;5016469;28;20671;-88
2022/10/24 14:51:02;;;;;;;6.57;1.90;;;19.20;99.90;;;;;;5016268;28;20200;-87
2022/10/24 14:53:29;;;;;;;5.53;1.97;;;19.30;99.90;;;;;;5016305;28;20200;-86
2022/10/24 14:55:58;;;;;;;6.53;1.83;;;19.30;99.90;;;;;;5016249;28;20645;-88
2022/10/24 14:58:29;;;;;;;5.57;1.90;;;19.30;99.90;;;;;;5015226;28;20235;-90
2022/10/24 15:00:57;;;;;;;5.73;1.50;;;19.10;99.90;;;;;;5016772;28;20196;-89
2022/10/24 15:03:25;;;;;;;5.33;1.63;;;18.90;99.90;;;;;;5017291;28;20686;-87
2022/10/24 15:05:58;;;;;;;9.63;2.10;;;19.00;99.90;;;;;;5016187;28;20203;-88
2022/10/24 15:08:28;;;;;;;7.30;2.20;;;19.00;99.90;;;;;;5018409;28;20203;-86
2022/10/24 15:11:05;;;;;;;6.93;1.80;;;19.00;99.90;;;;;;5019157;28;20711;-88
2022/10/24 15:13:45;;;;;;;5.87;1.80;;;19.30;99.90;;;;;;5017567;28;20262;-87
2022/10/24 15:16:21;;;;;;;5.00;1.60;;;19.40;99.90;;;;;;5016939;28;20286;-87
2022/10/24 15:18:48;;;;;;;6.33;1.60;;;19.60;99.90;;;;;;5016043;28;20234;-86
2022/10/24 15:21:17;;;;;;;8.20;2.10;;;19.50;99.90;;;;;;5015849;28;20204;-88
2022/10/24 15:23:47;;;;;;;7.80;1.90;;;19.50;99.90;;;;;;5015822;28;20190;-86
2022/10/24 15:26:19;;;;;;;8.47;2.20;;;19.20;99.90;;;;;;5015293;28;20196;-87
2022/10/24 15:28:49;;;;;;;5.73;1.87;;;19.10;99.90;;;;;;5015779;28;20564;-87
2022/10/24 15:31:19;;;;;;;7.03;2.13;;;19.00;99.90;;;;;;5015220;28;20200;-86
2022/10/24 15:33:46;;;;;;;6.70;2.00;;;19.10;99.90;;;;;;5015648;28;20204;-86
2022/10/24 15:36:26;;;;;;;5.00;1.80;;;19.00;99.90;;;;;;5001771;28;20678;-85
2022/10/24 15:39:17;;;;;;;7.60;1.83;;;18.70;99.90;;;;;;5003733;28;20301;-85
2022/10/24 15:41:44;;;;;;;10.23;2.33;;;18.50;99.90;;;;;;5002687;28;20208;-86
2022/10/24 15:52:34;;;;;;;9.23;2.87;;;18.10;99.90;;;;;;5142440;23;20239;-87
2022/10/24 15:58:16;;;;;;;6.93;2.30;;;18.10;99.90;;;;;;5082185;23;20299;-86
2022/10/24 16:00:44;;;;;;;8.93;2.43;;;18.00;99.90;;;;;;5029214;28;20338;-89
2022/10/24 16:03:14;;;;;;;9.93;2.37;;;18.00;99.90;;;;;;5023717;28;20208;-87
2022/10/24 16:14:24;;;;;;;10.17;2.40;;;17.90;99.90;;;;;;5015198;28;20265;-90
2022/10/24 16:34:09;;;;;;;7.80;1.30;;;14.60;99.90;;;;;;5045159;28;20204;-85
2022/10/24 16:36:42;;;;;;;3.60;0.90;;;14.40;99.90;;;;;;5033818;28;20192;-83
2022/10/24 16:39:15;;;;;;;5.10;1.40;;;14.50;99.90;;;;;;5043319;28;20215;-84
2022/10/24 16:41:57;;;;;;;8.10;2.10;;;14.60;99.90;;;;;;5043719;28;20206;-84
2022/10/24 16:58:21;;;;;;;10.60;2.40;;;14.90;99.90;;;;;;5032184;28;20208;-92
2022/10/24 17:01:15;;;;;;;6.20;1.73;;;14.80;99.90;;;;;;5035917;28;20179;-90
2022/10/24 17:03:43;;;;;;;2.67;1.00;;;14.60;99.90;;;;;;5059965;23;20773;-89
2022/10/24 17:06:14;;;;;;;2.63;1.00;;;14.40;99.90;;;;;;5054536;28;20187;-90
2022/10/24 17:08:42;;;;;;;4.33;1.33;;;14.10;99.90;;;;;;5055193;28;20207;-90
2022/10/24 17:13:56;;;;;;;2.27;1.20;;;13.80;99.90;;;;;;5044463;23;20226;-89
2022/10/24 17:20:05;;;;;;;2.30;0.97;;;13.40;99.90;;;;;;5038848;28;20246;-89
2022/10/24 17:25:55;;;;;;;2.00;1.10;;;13.40;99.90;;;;;;5036982;28;20178;-94
2022/10/24 17:31:45;;;;;;;1.77;1.00;;;13.40;99.90;;;;;;5032284;28;20218;-93
2022/10/24 17:34:25;;;;;;;1.63;1.10;;;13.30;99.90;;;;;;5017219;28;20318;-92
2022/10/24 17:40:17;;;;;;;1.47;0.70;;;13.40;99.90;;;;;;5030920;28;20222;-91
2022/10/24 17:42:54;;;;;;;3.70;0.97;;;13.20;99.90;;;;;;5031657;28;20224;-90
2022/10/24 17:45:24;;;;;;;2.80;1.20;;;13.20;99.90;;;;;;5031228;28;20286;-96
2022/10/24 17:51:17;;;;;;;2.07;1.13;;;13.30;99.90;;;;;;5033624;28;20243;-91
2022/10/24 17:53:44;;;;;;;1.97;1.20;;;13.40;99.90;;;;;;5037570;28;20210;-89
2022/10/24 17:56:25;;;;;;;1.70;1.23;;;13.40;99.90;;;;;;5038058;28;20223;-95
2022/10/24 17:58:53;;;;;;;2.93;1.10;;;13.30;99.90;;;;;;5038533;28;20220;-89
2022/10/24 18:04:28;;;;;;;1.40;1.30;;;13.30;99.90;;;;;;5018438;28;20216;-89
2022/10/24 18:06:59;;;;;;;1.90;1.20;;;13.40;99.90;;;;;;5018773;28;20200;-90
2022/10/24 18:09:28;;;;;;;4.57;1.40;;;13.50;99.90;;;;;;5018211;28;20205;-92
2022/10/24 18:11:56;;;;;;;4.67;1.90;;;13.70;99.90;;;;;;5030048;23;20224;-90
2022/10/24 18:18:09;;;;;;;4.20;2.00;;;13.70;99.90;;;;;;5058430;28;20186;-92
2022/10/24 18:21:14;;;;;;;2.73;1.70;;;13.70;99.90;;;;;;5061187;28;20190;-92
2022/10/24 18:24:08;;;;;;;2.57;1.20;;;13.80;99.90;;;;;;5042445;28;20204;-93
2022/10/24 18:30:30;;;;;;;3.20;1.50;;;13.90;99.90;;;;;;5041440;28;20242;-91
2022/10/24 18:33:03;;;;;;;3.13;1.27;;;13.90;99.90;;;;;;5041834;28;20211;-90
2022/10/24 18:39:05;;;;;;;3.47;1.50;;;14.00;99.90;;;;;;5022133;28;20168;-93
2022/10/24 18:44:55;;;;;;;2.07;1.40;;;14.20;99.90;;;;;;5022138;28;20199;-93
2022/10/24 18:50:50;;;;;;;6.87;2.40;;;14.20;99.90;;;;;;5032694;28;20191;-93
2022/10/24 18:53:35;;;;;;;7.60;2.23;;;14.20;99.90;;;;;;5041639;28;20243;-92
2022/10/24 18:56:11;;;;;;;4.00;2.67;;;14.30;99.90;;;;;;5041449;28;20195;-87
2022/10/24 19:02:41;;;;;;;9.20;2.33;;;14.40;99.90;;;;;;5048141;23;20231;-89
2022/10/24 19:05:52;;;;;;;4.00;2.03;;;14.40;99.90;;;;;;5039140;28;20196;-89
2022/10/24 19:11:58;;;;;;;4.70;2.30;;;14.40;99.90;;;;;;5040003;28;20176;-90
2022/10/24 19:23:55;;;;;;;5.33;2.57;;;14.40;99.90;;;;;;5005167;28;20196;-92
2022/10/24 19:26:29;;;;;;;7.33;2.60;;;14.30;99.90;;;;;;5040353;28;20188;-91
2022/10/24 19:29:20;;;;;;;6.67;2.83;;;14.30;99.90;;;;;;5030232;28;20205;-91
2022/10/24 19:31:46;;;;;;;6.70;3.17;;;14.30;99.90;;;;;;5022596;28;20319;-96
2022/10/24 19:34:28;;;;;;;5.87;3.33;;;14.40;99.90;;;;;;5027324;28;20227;-96
2022/10/24 19:40:35;;;;;;;6.17;2.50;;;14.40;99.90;;;;;;5038358;28;20231;-93
2022/10/24 19:43:16;;;;;;;6.83;2.63;;;14.30;99.90;;;;;;5038197;28;20231;-93
2022/10/24 19:52:39;;;;;;;7.80;2.13;;;14.30;99.90;;;;;;5019524;28;20330;-94
2022/10/24 19:58:47;;;;;;;5.23;1.80;;;14.40;99.90;;;;;;5039810;28;20239;-93
2022/10/24 20:08:12;;;;;;;7.90;2.20;;;14.40;99.90;;;;;;5038049;28;20191;-95
2022/10/24 20:11:11;;;;;;;6.40;1.90;;;14.50;99.90;;;;;;5022051;28;20216;-94
2022/10/24 20:13:50;;;;;;;6.77;2.30;;;14.60;99.90;;;;;;5020461;28;20315;-89
2022/10/24 20:19:39;;;;;;;6.93;1.73;;;14.60;99.90;;;;;;5014266;28;20207;-90
2022/10/24 20:22:45;;;;;;;12.90;2.50;;;14.70;99.90;;;;;;5028704;28;20283;-90
2022/10/24 20:25:57;;;;;;;4.80;1.97;;;14.60;99.90;;;;;;5015395;28;20231;-90
2022/10/24 20:28:37;;;;;;;10.43;2.40;;;14.70;99.90;;;;;;5008717;28;20205;-90
2022/10/24 20:31:20;;;;;;;4.97;2.00;;;14.70;99.90;;;;;;5018850;28;20229;-90
2022/10/24 20:33:58;;;;;;;8.47;2.73;;;14.70;99.90;;;;;;5006127;28;20200;-90
2022/10/24 20:36:32;;;;;;;7.70;2.47;;;14.60;99.90;;;;;;5007905;28;20208;-90
2022/10/24 20:39:26;;;;;;;8.40;2.07;;;14.70;99.90;;;;;;5021675;28;20238;-90
2022/10/24 20:42:03;;;;;;;7.07;2.10;;;14.60;99.90;;;;;;5017924;28;20287;-90
2022/10/24 20:45:08;;;;;;;8.63;2.40;;;14.60;99.90;;;;;;5022476;28;20227;-91
2022/10/24 20:47:38;;;;;;;6.47;1.93;;;14.60;99.90;;;;;;5022848;28;20214;-90
2022/10/24 20:50:11;;;;;;;6.63;2.00;;;14.60;99.90;;;;;;5024690;28;20207;-91
2022/10/24 20:53:30;;;;;;;5.73;2.07;;;14.50;99.90;;;;;;5024165;28;20299;-91
2022/10/24 20:56:14;;;;;;;8.93;2.33;;;14.60;99.90;;;;;;5023508;28;20292;-91
2022/10/24 20:58:49;;;;;;;5.07;2.20;;;14.60;99.90;;;;;;5019358;28;20208;-91
2022/10/24 21:01:22;;;;;;;7.33;2.13;;;14.60;99.90;;;;;;5013162;28;20235;-90
2022/10/24 21:04:09;;;;;;;5.50;1.90;;;14.60;99.90;;;;;;5026018;28;20291;-91
2022/10/24 21:06:36;;;;;;;6.03;2.57;;;14.60;99.90;;;;;;5025214;28;20243;-90
2022/10/24 21:09:06;;;;;;;6.00;2.23;;;14.60;99.90;;;;;;5035888;28;20236;-89
2022/10/24 21:11:34;;;;;;;7.07;1.67;;;14.60;99.90;;;;;;5036772;28;20212;-91
2022/10/24 21:14:07;;;;;;;6.33;2.10;;;14.60;99.90;;;;;;5030454;28;20179;-92
2022/10/24 21:16:41;;;;;;;4.50;1.73;;;14.70;99.90;;;;;;5024133;28;20215;-90
2022/10/24 21:19:11;;;;;;;9.03;1.83;;;14.70;99.90;;;;;;5033507;28;20207;-90
2022/10/24 21:21:40;;;;;;;4.67;1.80;;;14.70;99.90;;;;;;5038589;28;20212;-91
2022/10/24 21:24:20;;;;;;;8.10;1.80;;;14.70;99.90;;;;;;5037371;28;20211;-90
2022/10/24 21:26:54;;;;;;;6.43;1.87;;;14.70;99.90;;;;;;5034658;28;20192;-89
2022/10/24 21:29:52;;;;;;;7.40;2.10;;;14.70;99.90;;;;;;5036773;28;20218;-91
2022/10/24 21:32:20;;;;;;;4.20;1.77;;;14.60;99.90;;;;;;5036412;28;20208;-91
2022/10/24 21:34:49;;;;;;;8.03;2.00;;;14.60;99.90;;;;;;5020514;28;20201;-91
2022/10/24 21:37:16;;;;;;;5.83;2.37;;;14.50;99.90;;;;;;5033116;28;20242;-91
2022/10/24 21:39:44;;;;;;;5.93;1.90;;;14.60;99.90;;;;;;5018650;28;20284;-91
2022/10/24 21:45:33;;;;;;;8.53;1.73;;;14.50;99.90;;;;;;5038222;28;20179;-91
2022/10/24 21:48:20;;;;;;;5.50;2.03;;;14.50;99.90;;;;;;5038488;28;20188;-91
2022/10/24 21:50:50;;;;;;;8.60;2.20;;;14.40;99.90;;;;;;5037387;28;20192;-92
2022/10/24 21:54:02;;;;;;;7.10;2.40;;;14.40;99.90;;;;;;5037510;28;20234;-91
2022/10/24 21:56:48;;;;;;;11.60;2.10;;;14.40;99.90;;;;;;5041507;28;20303;-91
2022/10/24 21:59:25;;;;;;;8.63;2.03;;;14.40;99.90;;;;;;5041359;28;20219;-92
2022/10/24 22:05:17;;;;;;;8.30;2.20;;;14.30;99.90;;;;;;5042477;28;20207;-91
2022/10/24 22:08:02;;;;;;;6.67;2.07;;;14.40;99.90;;;;;;5035835;28;20244;-90
2022/10/24 22:10:29;;;;;;;6.73;2.37;;;14.40;99.90;;;;;;5041505;28;20206;-94
2022/10/24 22:12:57;;;;;;;4.20;1.43;;;14.40;99.90;;;;;;5040414;28;20216;-92
2022/10/24 22:15:31;;;;;;;5.87;2.07;;;14.40;99.90;;;;;;5022022;28;20207;-91
2022/10/24 22:18:05;;;;;;;8.10;2.40;;;14.40;99.90;;;;;;5021806;28;20195;-93
2022/10/24 22:21:21;;;;;;;6.47;1.80;;;14.40;99.90;;;;;;5021899;28;20281;-93
2022/10/24 22:23:54;;;;;;;6.47;1.90;;;14.40;99.90;;;;;;5039187;28;20264;-91
2022/10/24 22:26:24;;;;;;;4.73;1.93;;;14.40;99.90;;;;;;5041420;28;20199;-90
2022/10/24 22:32:15;;;;;;;9.50;2.30;;;14.40;99.90;;;;;;5041024;28;20210;-93
2022/10/24 22:34:48;;;;;;;6.87;1.73;;;14.40;99.90;;;;;;5040435;28;20188;-95
2022/10/24 22:37:22;;;;;;;7.63;2.10;;;14.30;99.90;;;;;;5020877;28;20256;-93
2022/10/24 22:39:54;;;;;;;7.60;2.27;;;14.40;99.90;;;;;;5024110;28;20200;-94
2022/10/24 22:42:21;;;;;;;9.43;2.15;;;14.30;99.90;;;;;;5029005;28;20436;-93
2022/10/24 22:48:19;;;;;;;6.70;2.63;;;14.40;99.90;;;;;;5039729;28;20179;-91
2022/10/24 22:50:54;;;;;;;7.70;1.93;;;14.40;99.90;;;;;;5039503;28;20252;-93
2022/10/24 22:53:28;;;;;;;10.70;3.07;;;14.40;99.90;;;;;;5041340;28;20234;-91
2022/10/24 22:56:11;;;;;;;10.97;2.00;;;14.40;99.90;;;;;;5021349;28;20248;-93
2022/10/24 22:58:58;;;;;;;8.20;2.13;;;14.40;99.90;;;;;;5039197;28;20210;-92
2022/10/24 23:01:42;;;;;;;8.27;2.30;;;14.40;99.90;;;;;;5021382;28;20222;-93
2022/10/24 23:04:24;;;;;;;5.23;1.80;;;14.40;99.90;;;;;;5039948;28;20239;-93
2022/10/24 23:07:42;;;;;;;10.20;2.10;;;14.40;99.90;;;;;;5023954;28;20195;-89
2022/10/24 23:10:27;;;;;;;6.80;1.80;;;14.30;99.90;;;;;;5040344;28;20283;-91
2022/10/24 23:13:03;;;;;;;12.23;2.70;;;14.30;99.90;;;;;;5040449;28;20283;-92
2022/10/24 23:15:33;;;;;;;7.17;2.20;;;14.30;99.90;;;;;;5039585;28;20184;-90
2022/10/24 23:18:03;;;;;;;10.33;2.30;;;14.30;99.90;;;;;;5039695;28;20184;-90
2022/10/24 23:20:51;;;;;;;8.67;2.17;;;14.30;99.90;;;;;;5032174;28;20216;-90
2022/10/24 23:23:24;;;;;;;8.50;1.93;;;14.30;99.90;;;;;;5025910;28;20271;-89
2022/10/24 23:26:02;;;;;;;4.27;1.67;;;14.30;99.90;;;;;;5032451;28;20260;-91
2022/10/24 23:28:41;;;;;;;9.17;1.97;;;14.30;99.90;;;;;;5032897;28;20214;-88
2022/10/24 23:31:12;;;;;;;8.43;1.90;;;14.30;99.90;;;;;;5029027;28;20275;-87
2022/10/24 23:33:42;;;;;;;5.97;2.07;;;14.30;99.90;;;;;;5038324;28;20291;-89
2022/10/24 23:36:18;;;;;;;10.40;2.30;;;14.40;99.90;;;;;;5036512;28;20231;-89
2022/10/24 23:38:52;;;;;;;8.83;2.00;;;14.30;99.90;;;;;;5024689;28;20203;-92
2022/10/24 23:41:21;;;;;;;7.97;1.83;;;14.30;99.90;;;;;;5031451;28;20238;-88
2022/10/24 23:43:54;;;;;;;5.93;1.67;;;14.30;99.90;;;;;;5039897;28;20185;-93
2022/10/24 23:46:34;;;;;;;7.40;1.97;;;14.30;99.90;;;;;;5024822;28;20216;-90
2022/10/24 23:49:26;;;;;;;7.77;2.07;;;14.20;99.90;;;;;;5018314;28;20244;-91
2022/10/24 23:52:11;;;;;;;6.53;2.13;;;14.30;99.90;;;;;;5034638;28;20246;-93
2022/10/24 23:54:41;;;;;;;6.07;1.60;;;14.20;99.90;;;;;;5032007;28;20272;-93
2022/10/24 23:57:16;;;;;;;9.00;1.70;;;14.30;99.90;;;;;;5039651;28;20192;-92
2022/10/24 23:59:50;;;;;;;6.43;1.40;;;14.30;99.90;;;;;;5038540;28;20209;-91
